sensor_id;sensor_type;location;lat;lon;timestamp;temperature;humidity
46730;DHT22;32476;50.002;11.854;2022-10-01T00:01:14;3.90;99.90
46730;DHT22;32476;50.002;11.854;2022-10-01T00:03:44;4.00;99.90
46730;DHT22;32476;50.002;11.854;2022-10-01T00:06:20;4.00;99.90
46730;DHT22;32476;50.002;11.854;2022-10-01T00:08:49;3.90;99.90
46730;DHT22;32476;50.002;11.854;2022-10-01T00:11:20;3.80;99.90
46730;DHT22;32476;50.002;11.854;2022-10-01T00:13:50;3.70;99.90
46730;DHT22;32476;50.002;11.854;2022-10-01T00:16:19;3.80;99.90
46730;DHT22;32476;50.002;11.854;2022-10-01T00:18:47;3.80;99.90
46730;DHT22;32476;50.002;11.854;2022-10-01T00:21:18;3.80;99.90
46730;DHT22;32476;50.002;11.854;2022-10-01T00:23:45;3.70;99.90
46730;DHT22;32476;50.002;11.854;2022-10-01T00:26:15;3.60;99.90
46730;DHT22;32476;50.002;11.854;2022-10-01T00:28:46;3.60;99.90
46730;DHT22;32476;50.002;11.854;2022-10-01T00:31:14;3.50;99.90
46730;DHT22;32476;50.002;11.854;2022-10-01T00:33:41;3.50;99.90
46730;DHT22;32476;50.002;11.854;2022-10-01T00:36:09;3.40;99.90
46730;DHT22;32476;50.002;11.854;2022-10-01T00:38:37;3.50;99.90
46730;DHT22;32476;50.002;11.854;2022-10-01T00:41:06;3.60;99.90
46730;DHT22;32476;50.002;11.854;2022-10-01T00:43:35;3.50;99.90
46730;DHT22;32476;50.002;11.854;2022-10-01T00:48:53;3.50;99.90
46730;DHT22;32476;50.002;11.854;2022-10-01T00:51:28;3.50;99.90
46730;DHT22;32476;50.002;11.854;2022-10-01T00:54:04;3.60;99.90
46730;DHT22;32476;50.002;11.854;2022-10-01T00:56:57;3.50;99.90
46730;DHT22;32476;50.002;11.854;2022-10-01T00:59:27;3.50;99.90
46730;DHT22;32476;50.002;11.854;2022-10-01T01:01:54;3.50;99.90
46730;DHT22;32476;50.002;11.854;2022-10-01T01:04:20;3.50;99.90
46730;DHT22;32476;50.002;11.854;2022-10-01T01:06:51;3.50;99.90
46730;DHT22;32476;50.002;11.854;2022-10-01T01:09:24;3.50;99.90
46730;DHT22;32476;50.002;11.854;2022-10-01T01:12:03;3.60;99.90
46730;DHT22;32476;50.002;11.854;2022-10-01T01:15:05;3.70;99.90
46730;DHT22;32476;50.002;11.854;2022-10-01T01:24:00;4.00;99.90
46730;DHT22;32476;50.002;11.854;2022-10-01T01:29:53;4.30;99.90
46730;DHT22;32476;50.002;11.854;2022-10-01T01:32:42;4.30;99.90
46730;DHT22;32476;50.002;11.854;2022-10-01T01:35:20;4.20;99.90
46730;DHT22;32476;50.002;11.854;2022-10-01T01:37:53;4.20;99.90
46730;DHT22;32476;50.002;11.854;2022-10-01T01:40:24;4.30;99.90
46730;DHT22;32476;50.002;11.854;2022-10-01T01:42:52;4.30;99.90
46730;DHT22;32476;50.002;11.854;2022-10-01T01:45:23;4.50;99.90
46730;DHT22;32476;50.002;11.854;2022-10-01T01:47:55;4.50;99.90
46730;DHT22;32476;50.002;11.854;2022-10-01T01:50:24;4.50;99.90
46730;DHT22;32476;50.002;11.854;2022-10-01T01:52:55;4.50;99.90
46730;DHT22;32476;50.002;11.854;2022-10-01T01:55:22;4.30;99.90
46730;DHT22;32476;50.002;11.854;2022-10-01T01:57:49;4.20;99.90
46730;DHT22;32476;50.002;11.854;2022-10-01T02:00:17;4.30;99.90
46730;DHT22;32476;50.002;11.854;2022-10-01T02:02:48;4.10;99.90
46730;DHT22;32476;50.002;11.854;2022-10-01T02:05:21;4.10;99.90
46730;DHT22;32476;50.002;11.854;2022-10-01T02:08:17;3.90;99.90
46730;DHT22;32476;50.002;11.854;2022-10-01T02:11:03;4.00;99.90
46730;DHT22;32476;50.002;11.854;2022-10-01T02:14:12;3.80;99.90
46730;DHT22;32476;50.002;11.854;2022-10-01T02:16:58;4.00;99.90
46730;DHT22;32476;50.002;11.854;2022-10-01T02:22:10;3.80;99.90
46730;DHT22;32476;50.002;11.854;2022-10-01T02:24:45;3.80;99.90
46730;DHT22;32476;50.002;11.854;2022-10-01T02:27:28;3.80;99.90
46730;DHT22;32476;50.002;11.854;2022-10-01T02:29:58;3.70;99.90
46730;DHT22;32476;50.002;11.854;2022-10-01T02:32:29;3.70;99.90
46730;DHT22;32476;50.002;11.854;2022-10-01T02:34:56;3.70;99.90
46730;DHT22;32476;50.002;11.854;2022-10-01T02:37:24;3.70;99.90
46730;DHT22;32476;50.002;11.854;2022-10-01T02:39:55;3.70;99.90
46730;DHT22;32476;50.002;11.854;2022-10-01T02:42:26;3.70;99.90
46730;DHT22;32476;50.002;11.854;2022-10-01T02:44:56;3.60;99.90
46730;DHT22;32476;50.002;11.854;2022-10-01T02:47:33;3.60;99.90
46730;DHT22;32476;50.002;11.854;2022-10-01T02:50:05;3.40;99.90
46730;DHT22;32476;50.002;11.854;2022-10-01T02:52:47;3.40;99.90
46730;DHT22;32476;50.002;11.854;2022-10-01T02:55:29;3.40;99.90
46730;DHT22;32476;50.002;11.854;2022-10-01T02:57:59;3.30;99.90
46730;DHT22;32476;50.002;11.854;2022-10-01T03:00:26;3.30;99.90
46730;DHT22;32476;50.002;11.854;2022-10-01T03:02:53;3.30;99.90
46730;DHT22;32476;50.002;11.854;2022-10-01T03:05:19;3.30;99.90
46730;DHT22;32476;50.002;11.854;2022-10-01T03:07:47;3.20;99.90
46730;DHT22;32476;50.002;11.854;2022-10-01T03:10:14;3.30;99.90
46730;DHT22;32476;50.002;11.854;2022-10-01T03:12:41;3.20;99.90
46730;DHT22;32476;50.002;11.854;2022-10-01T03:15:14;3.20;99.90
46730;DHT22;32476;50.002;11.854;2022-10-01T03:17:41;3.10;99.90
46730;DHT22;32476;50.002;11.854;2022-10-01T03:20:08;3.10;99.90
46730;DHT22;32476;50.002;11.854;2022-10-01T03:22:35;3.10;99.90
46730;DHT22;32476;50.002;11.854;2022-10-01T03:25:01;3.20;99.90
46730;DHT22;32476;50.002;11.854;2022-10-01T03:27:28;3.20;99.90
46730;DHT22;32476;50.002;11.854;2022-10-01T03:29:55;3.00;99.90
46730;DHT22;32476;50.002;11.854;2022-10-01T03:32:21;3.10;99.90
46730;DHT22;32476;50.002;11.854;2022-10-01T03:34:47;3.20;99.90
46730;DHT22;32476;50.002;11.854;2022-10-01T03:37:14;3.20;99.90
46730;DHT22;32476;50.002;11.854;2022-10-01T03:39:40;3.10;99.90
46730;DHT22;32476;50.002;11.854;2022-10-01T03:42:06;3.10;99.90
46730;DHT22;32476;50.002;11.854;2022-10-01T03:44:34;3.10;99.90
46730;DHT22;32476;50.002;11.854;2022-10-01T03:46:59;3.00;99.90
46730;DHT22;32476;50.002;11.854;2022-10-01T03:49:25;3.00;99.90
46730;DHT22;32476;50.002;11.854;2022-10-01T03:51:53;3.10;99.90
46730;DHT22;32476;50.002;11.854;2022-10-01T03:54:20;3.00;99.90
46730;DHT22;32476;50.002;11.854;2022-10-01T03:56:46;3.00;99.90
46730;DHT22;32476;50.002;11.854;2022-10-01T03:59:14;3.00;99.90
46730;DHT22;32476;50.002;11.854;2022-10-01T04:01:40;3.00;99.90
46730;DHT22;32476;50.002;11.854;2022-10-01T04:04:06;3.10;99.90
46730;DHT22;32476;50.002;11.854;2022-10-01T04:06:36;3.20;99.90
46730;DHT22;32476;50.002;11.854;2022-10-01T04:09:02;3.20;99.90
46730;DHT22;32476;50.002;11.854;2022-10-01T04:11:28;3.20;99.90
46730;DHT22;32476;50.002;11.854;2022-10-01T04:13:56;3.30;99.90
46730;DHT22;32476;50.002;11.854;2022-10-01T04:16:23;3.40;99.90
46730;DHT22;32476;50.002;11.854;2022-10-01T04:18:49;3.30;99.90
46730;DHT22;32476;50.002;11.854;2022-10-01T04:21:17;3.40;99.90
46730;DHT22;32476;50.002;11.854;2022-10-01T04:23:43;3.40;99.90
46730;DHT22;32476;50.002;11.854;2022-10-01T04:26:09;3.50;99.90
46730;DHT22;32476;50.002;11.854;2022-10-01T04:28:37;3.50;99.90
46730;DHT22;32476;50.002;11.854;2022-10-01T04:31:03;3.50;99.90
46730;DHT22;32476;50.002;11.854;2022-10-01T04:33:54;3.50;99.90
46730;DHT22;32476;50.002;11.854;2022-10-01T04:36:21;3.50;99.90
46730;DHT22;32476;50.002;11.854;2022-10-01T04:38:54;3.70;99.90
46730;DHT22;32476;50.002;11.854;2022-10-01T04:41:21;3.70;99.90
46730;DHT22;32476;50.002;11.854;2022-10-01T04:43:47;3.80;99.90
46730;DHT22;32476;50.002;11.854;2022-10-01T04:46:14;3.70;99.90
46730;DHT22;32476;50.002;11.854;2022-10-01T04:48:41;3.80;99.90
46730;DHT22;32476;50.002;11.854;2022-10-01T04:51:07;3.80;99.90
46730;DHT22;32476;50.002;11.854;2022-10-01T04:53:34;3.70;99.90
46730;DHT22;32476;50.002;11.854;2022-10-01T04:56:00;3.80;99.90
46730;DHT22;32476;50.002;11.854;2022-10-01T04:58:26;3.70;99.90
46730;DHT22;32476;50.002;11.854;2022-10-01T05:00:54;3.80;99.90
46730;DHT22;32476;50.002;11.854;2022-10-01T05:03:20;3.80;99.90
46730;DHT22;32476;50.002;11.854;2022-10-01T05:05:45;3.90;99.90
46730;DHT22;32476;50.002;11.854;2022-10-01T05:08:13;4.00;99.90
46730;DHT22;32476;50.002;11.854;2022-10-01T05:10:39;3.90;99.90
46730;DHT22;32476;50.002;11.854;2022-10-01T05:13:05;3.80;99.90
46730;DHT22;32476;50.002;11.854;2022-10-01T05:15:32;3.80;99.90
46730;DHT22;32476;50.002;11.854;2022-10-01T05:18:00;3.80;99.90
46730;DHT22;32476;50.002;11.854;2022-10-01T05:20:26;3.90;99.90
46730;DHT22;32476;50.002;11.854;2022-10-01T05:22:54;3.90;99.90
46730;DHT22;32476;50.002;11.854;2022-10-01T05:25:21;3.90;99.90
46730;DHT22;32476;50.002;11.854;2022-10-01T05:27:47;4.10;99.90
46730;DHT22;32476;50.002;11.854;2022-10-01T05:30:15;4.00;99.90
46730;DHT22;32476;50.002;11.854;2022-10-01T05:32:56;4.00;99.90
46730;DHT22;32476;50.002;11.854;2022-10-01T05:35:25;4.30;99.90
46730;DHT22;32476;50.002;11.854;2022-10-01T05:37:55;4.50;99.90
46730;DHT22;32476;50.002;11.854;2022-10-01T05:40:22;4.60;99.90
46730;DHT22;32476;50.002;11.854;2022-10-01T05:42:53;4.60;99.90
46730;DHT22;32476;50.002;11.854;2022-10-01T05:45:20;4.80;99.90
46730;DHT22;32476;50.002;11.854;2022-10-01T05:47:48;5.10;99.90
46730;DHT22;32476;50.002;11.854;2022-10-01T05:50:22;5.40;99.90
46730;DHT22;32476;50.002;11.854;2022-10-01T05:52:50;5.60;99.90
46730;DHT22;32476;50.002;11.854;2022-10-01T05:55:18;5.80;99.90
46730;DHT22;32476;50.002;11.854;2022-10-01T05:57:54;5.90;99.90
46730;DHT22;32476;50.002;11.854;2022-10-01T06:00:24;6.00;99.90
46730;DHT22;32476;50.002;11.854;2022-10-01T06:02:56;6.10;99.90
46730;DHT22;32476;50.002;11.854;2022-10-01T06:05:22;6.20;99.90
46730;DHT22;32476;50.002;11.854;2022-10-01T06:07:49;6.20;99.90
46730;DHT22;32476;50.002;11.854;2022-10-01T06:10:17;6.30;99.90
46730;DHT22;32476;50.002;11.854;2022-10-01T06:12:43;6.30;99.90
46730;DHT22;32476;50.002;11.854;2022-10-01T06:15:09;6.40;99.90
46730;DHT22;32476;50.002;11.854;2022-10-01T06:17:38;6.40;99.90
46730;DHT22;32476;50.002;11.854;2022-10-01T06:20:12;6.40;99.90
46730;DHT22;32476;50.002;11.854;2022-10-01T06:22:42;6.50;99.90
46730;DHT22;32476;50.002;11.854;2022-10-01T06:25:10;6.50;99.90
46730;DHT22;32476;50.002;11.854;2022-10-01T06:27:37;6.60;99.90
46730;DHT22;32476;50.002;11.854;2022-10-01T06:30:06;6.60;99.90
46730;DHT22;32476;50.002;11.854;2022-10-01T06:32:32;6.70;99.90
46730;DHT22;32476;50.002;11.854;2022-10-01T06:34:59;6.70;99.90
46730;DHT22;32476;50.002;11.854;2022-10-01T06:37:26;6.80;99.90
46730;DHT22;32476;50.002;11.854;2022-10-01T06:39:52;6.80;99.90
46730;DHT22;32476;50.002;11.854;2022-10-01T06:42:18;6.80;99.90
46730;DHT22;32476;50.002;11.854;2022-10-01T06:44:45;6.90;99.90
46730;DHT22;32476;50.002;11.854;2022-10-01T06:47:11;6.90;99.90
46730;DHT22;32476;50.002;11.854;2022-10-01T06:49:37;6.90;99.90
46730;DHT22;32476;50.002;11.854;2022-10-01T06:52:04;7.00;99.90
46730;DHT22;32476;50.002;11.854;2022-10-01T06:54:48;7.00;99.90
46730;DHT22;32476;50.002;11.854;2022-10-01T06:57:16;7.10;99.90
46730;DHT22;32476;50.002;11.854;2022-10-01T06:59:42;7.10;99.90
46730;DHT22;32476;50.002;11.854;2022-10-01T07:02:22;7.10;99.90
46730;DHT22;32476;50.002;11.854;2022-10-01T07:04:58;7.20;99.90
46730;DHT22;32476;50.002;11.854;2022-10-01T07:07:35;7.20;99.90
46730;DHT22;32476;50.002;11.854;2022-10-01T07:10:05;7.20;99.90
46730;DHT22;32476;50.002;11.854;2022-10-01T07:12:37;7.30;99.90
46730;DHT22;32476;50.002;11.854;2022-10-01T07:15:06;7.30;99.90
46730;DHT22;32476;50.002;11.854;2022-10-01T07:17:33;7.30;99.90
46730;DHT22;32476;50.002;11.854;2022-10-01T07:20:00;7.30;99.90
46730;DHT22;32476;50.002;11.854;2022-10-01T07:22:27;7.30;99.90
46730;DHT22;32476;50.002;11.854;2022-10-01T07:24:53;7.30;99.90
46730;DHT22;32476;50.002;11.854;2022-10-01T07:27:19;7.30;99.90
46730;DHT22;32476;50.002;11.854;2022-10-01T07:29:47;7.30;99.90
46730;DHT22;32476;50.002;11.854;2022-10-01T07:32:13;7.30;99.90
46730;DHT22;32476;50.002;11.854;2022-10-01T07:34:39;7.40;99.90
46730;DHT22;32476;50.002;11.854;2022-10-01T07:37:07;7.40;99.90
46730;DHT22;32476;50.002;11.854;2022-10-01T07:39:36;7.40;99.90
46730;DHT22;32476;50.002;11.854;2022-10-01T07:42:03;7.40;99.90
46730;DHT22;32476;50.002;11.854;2022-10-01T07:44:31;7.50;99.90
46730;DHT22;32476;50.002;11.854;2022-10-01T07:46:58;7.50;99.90
46730;DHT22;32476;50.002;11.854;2022-10-01T07:49:24;7.50;99.90
46730;DHT22;32476;50.002;11.854;2022-10-01T07:51:52;7.60;99.90
46730;DHT22;32476;50.002;11.854;2022-10-01T07:54:20;7.60;99.90
46730;DHT22;32476;50.002;11.854;2022-10-01T07:56:47;7.60;99.90
46730;DHT22;32476;50.002;11.854;2022-10-01T07:59:18;7.60;99.90
46730;DHT22;32476;50.002;11.854;2022-10-01T08:01:48;7.60;99.90
46730;DHT22;32476;50.002;11.854;2022-10-01T08:04:22;7.70;99.90
46730;DHT22;32476;50.002;11.854;2022-10-01T08:07:07;7.60;99.90
46730;DHT22;32476;50.002;11.854;2022-10-01T08:09:35;7.60;99.90
46730;DHT22;32476;50.002;11.854;2022-10-01T08:12:01;7.70;99.90
46730;DHT22;32476;50.002;11.854;2022-10-01T08:14:27;7.80;99.90
46730;DHT22;32476;50.002;11.854;2022-10-01T08:16:56;7.70;99.90
46730;DHT22;32476;50.002;11.854;2022-10-01T08:19:22;7.70;99.90
46730;DHT22;32476;50.002;11.854;2022-10-01T08:21:50;7.60;99.90
46730;DHT22;32476;50.002;11.854;2022-10-01T08:24:17;7.60;99.90
46730;DHT22;32476;50.002;11.854;2022-10-01T08:26:44;7.60;99.90
46730;DHT22;32476;50.002;11.854;2022-10-01T08:29:13;7.60;99.90
46730;DHT22;32476;50.002;11.854;2022-10-01T08:31:40;7.60;99.90
46730;DHT22;32476;50.002;11.854;2022-10-01T08:34:06;7.60;99.90
46730;DHT22;32476;50.002;11.854;2022-10-01T08:36:32;7.70;99.90
46730;DHT22;32476;50.002;11.854;2022-10-01T08:39:01;7.60;99.90
46730;DHT22;32476;50.002;11.854;2022-10-01T08:44:22;7.60;99.90
46730;DHT22;32476;50.002;11.854;2022-10-01T08:46:55;7.50;99.90
46730;DHT22;32476;50.002;11.854;2022-10-01T08:49:35;7.50;99.90
46730;DHT22;32476;50.002;11.854;2022-10-01T08:52:25;7.50;99.90
46730;DHT22;32476;50.002;11.854;2022-10-01T08:55:13;7.40;99.90
46730;DHT22;32476;50.002;11.854;2022-10-01T08:57:47;7.40;99.90
46730;DHT22;32476;50.002;11.854;2022-10-01T09:00:28;7.30;99.90
46730;DHT22;32476;50.002;11.854;2022-10-01T09:02:59;7.30;99.90
46730;DHT22;32476;50.002;11.854;2022-10-01T09:05:54;7.30;99.90
46730;DHT22;32476;50.002;11.854;2022-10-01T09:14:43;7.30;99.90
46730;DHT22;32476;50.002;11.854;2022-10-01T09:17:34;7.30;99.90
46730;DHT22;32476;50.002;11.854;2022-10-01T09:20:25;7.20;99.90
46730;DHT22;32476;50.002;11.854;2022-10-01T09:25:53;7.20;99.90
46730;DHT22;32476;50.002;11.854;2022-10-01T09:28:27;7.20;99.90
46730;DHT22;32476;50.002;11.854;2022-10-01T09:31:25;7.20;99.90
46730;DHT22;32476;50.002;11.854;2022-10-01T09:34:11;7.20;99.90
46730;DHT22;32476;50.002;11.854;2022-10-01T09:39:58;7.10;99.90
46730;DHT22;32476;50.002;11.854;2022-10-01T09:42:29;7.20;99.90
46730;DHT22;32476;50.002;11.854;2022-10-01T09:44:57;7.10;99.90
46730;DHT22;32476;50.002;11.854;2022-10-01T09:47:24;7.10;99.90
46730;DHT22;32476;50.002;11.854;2022-10-01T09:49:50;7.10;99.90
46730;DHT22;32476;50.002;11.854;2022-10-01T09:54:57;7.10;99.90
46730;DHT22;32476;50.002;11.854;2022-10-01T09:57:38;7.10;99.90
46730;DHT22;32476;50.002;11.854;2022-10-01T10:00:14;7.10;99.90
46730;DHT22;32476;50.002;11.854;2022-10-01T10:02:45;7.00;99.90
46730;DHT22;32476;50.002;11.854;2022-10-01T10:07:56;7.10;99.90
46730;DHT22;32476;50.002;11.854;2022-10-01T10:10:29;7.10;99.90
46730;DHT22;32476;50.002;11.854;2022-10-01T10:13:32;7.10;99.90
46730;DHT22;32476;50.002;11.854;2022-10-01T10:16:19;7.10;99.90
46730;DHT22;32476;50.002;11.854;2022-10-01T10:19:04;7.10;99.90
46730;DHT22;32476;50.002;11.854;2022-10-01T10:21:34;7.10;99.90
46730;DHT22;32476;50.002;11.854;2022-10-01T10:24:04;7.10;99.90
46730;DHT22;32476;50.002;11.854;2022-10-01T10:26:34;7.10;99.90
46730;DHT22;32476;50.002;11.854;2022-10-01T10:29:06;7.10;99.90
46730;DHT22;32476;50.002;11.854;2022-10-01T10:31:41;7.10;99.90
46730;DHT22;32476;50.002;11.854;2022-10-01T10:34:37;7.10;99.90
46730;DHT22;32476;50.002;11.854;2022-10-01T10:37:13;7.10;99.90
46730;DHT22;32476;50.002;11.854;2022-10-01T10:39:47;7.10;99.90
46730;DHT22;32476;50.002;11.854;2022-10-01T10:42:16;7.10;99.90
46730;DHT22;32476;50.002;11.854;2022-10-01T10:44:51;7.10;99.90
46730;DHT22;32476;50.002;11.854;2022-10-01T10:47:20;7.10;99.90
46730;DHT22;32476;50.002;11.854;2022-10-01T10:49:53;7.10;99.90
46730;DHT22;32476;50.002;11.854;2022-10-01T10:52:35;7.10;99.90
46730;DHT22;32476;50.002;11.854;2022-10-01T10:55:28;7.10;99.90
46730;DHT22;32476;50.002;11.854;2022-10-01T10:58:10;7.10;99.90
46730;DHT22;32476;50.002;11.854;2022-10-01T11:00:48;7.10;99.90
46730;DHT22;32476;50.002;11.854;2022-10-01T11:03:23;7.20;99.90
46730;DHT22;32476;50.002;11.854;2022-10-01T11:05:51;7.20;99.90
46730;DHT22;32476;50.002;11.854;2022-10-01T11:08:24;7.20;99.90
46730;DHT22;32476;50.002;11.854;2022-10-01T11:11:00;7.20;99.90
46730;DHT22;32476;50.002;11.854;2022-10-01T11:30:36;7.30;99.90
46730;DHT22;32476;50.002;11.854;2022-10-01T11:33:43;7.40;99.90
46730;DHT22;32476;50.002;11.854;2022-10-01T11:36:28;7.40;99.90
46730;DHT22;32476;50.002;11.854;2022-10-01T11:38:59;7.40;99.90
46730;DHT22;32476;50.002;11.854;2022-10-01T11:44:45;7.40;99.90
46730;DHT22;32476;50.002;11.854;2022-10-01T11:47:36;7.40;99.90
46730;DHT22;32476;50.002;11.854;2022-10-01T11:50:21;7.50;99.90
46730;DHT22;32476;50.002;11.854;2022-10-01T11:52:58;7.50;99.90
46730;DHT22;32476;50.002;11.854;2022-10-01T11:55:35;7.60;99.90
46730;DHT22;32476;50.002;11.854;2022-10-01T12:01:46;7.60;99.90
46730;DHT22;32476;50.002;11.854;2022-10-01T12:07:23;7.60;99.90
46730;DHT22;32476;50.002;11.854;2022-10-01T12:10:12;7.60;99.90
46730;DHT22;32476;50.002;11.854;2022-10-01T12:12:57;7.60;99.90
46730;DHT22;32476;50.002;11.854;2022-10-01T12:15:31;7.60;99.90
46730;DHT22;32476;50.002;11.854;2022-10-01T12:18:21;7.60;99.90
46730;DHT22;32476;50.002;11.854;2022-10-01T12:21:05;7.60;99.90
46730;DHT22;32476;50.002;11.854;2022-10-01T12:23:42;7.60;99.90
46730;DHT22;32476;50.002;11.854;2022-10-01T12:30:18;7.60;99.90
46730;DHT22;32476;50.002;11.854;2022-10-01T12:42:38;7.80;99.90
46730;DHT22;32476;50.002;11.854;2022-10-01T12:54:09;7.80;99.90
46730;DHT22;32476;50.002;11.854;2022-10-01T12:56:52;7.80;99.90
46730;DHT22;32476;50.002;11.854;2022-10-01T13:02:46;7.90;99.90
46730;DHT22;32476;50.002;11.854;2022-10-01T13:05:50;7.90;99.90
46730;DHT22;32476;50.002;11.854;2022-10-01T13:14:19;8.00;99.90
46730;DHT22;32476;50.002;11.854;2022-10-01T13:17:10;8.00;99.90
46730;DHT22;32476;50.002;11.854;2022-10-01T13:20:02;8.00;99.90
46730;DHT22;32476;50.002;11.854;2022-10-01T13:22:54;8.10;99.90
46730;DHT22;32476;50.002;11.854;2022-10-01T13:28:07;8.10;99.90
46730;DHT22;32476;50.002;11.854;2022-10-01T13:31:09;8.10;99.90
46730;DHT22;32476;50.002;11.854;2022-10-01T13:33:37;8.20;99.90
46730;DHT22;32476;50.002;11.854;2022-10-01T13:36:06;8.20;99.90
46730;DHT22;32476;50.002;11.854;2022-10-01T13:38:41;8.20;99.90
46730;DHT22;32476;50.002;11.854;2022-10-01T13:41:19;8.20;99.90
46730;DHT22;32476;50.002;11.854;2022-10-01T13:44:08;8.20;99.90
46730;DHT22;32476;50.002;11.854;2022-10-01T13:47:08;8.20;99.90
46730;DHT22;32476;50.002;11.854;2022-10-01T13:49:38;8.30;99.90
46730;DHT22;32476;50.002;11.854;2022-10-01T13:52:18;8.30;99.90
46730;DHT22;32476;50.002;11.854;2022-10-01T13:54:53;8.20;99.90
46730;DHT22;32476;50.002;11.854;2022-10-01T14:00:20;8.30;99.90
46730;DHT22;32476;50.002;11.854;2022-10-01T14:06:00;8.30;99.90
46730;DHT22;32476;50.002;11.854;2022-10-01T14:08:52;8.30;99.90
46730;DHT22;32476;50.002;11.854;2022-10-01T14:11:28;8.30;99.90
46730;DHT22;32476;50.002;11.854;2022-10-01T14:14:26;8.30;99.90
46730;DHT22;32476;50.002;11.854;2022-10-01T14:17:23;8.40;99.90
46730;DHT22;32476;50.002;11.854;2022-10-01T14:19:53;8.40;99.90
46730;DHT22;32476;50.002;11.854;2022-10-01T14:34:01;8.50;99.90
46730;DHT22;32476;50.002;11.854;2022-10-01T14:36:35;8.50;99.90
46730;DHT22;32476;50.002;11.854;2022-10-01T14:39:17;8.60;99.90
46730;DHT22;32476;50.002;11.854;2022-10-01T14:41:53;8.60;99.90
46730;DHT22;32476;50.002;11.854;2022-10-01T14:44:35;8.70;99.90
46730;DHT22;32476;50.002;11.854;2022-10-01T14:49:48;8.70;99.90
46730;DHT22;32476;50.002;11.854;2022-10-01T14:52:22;8.70;99.90
46730;DHT22;32476;50.002;11.854;2022-10-01T14:55:11;8.80;99.90
46730;DHT22;32476;50.002;11.854;2022-10-01T14:57:42;8.80;99.90
46730;DHT22;32476;50.002;11.854;2022-10-01T15:00:19;8.80;99.90
46730;DHT22;32476;50.002;11.854;2022-10-01T15:02:50;8.80;99.90
46730;DHT22;32476;50.002;11.854;2022-10-01T15:05:32;8.80;99.90
46730;DHT22;32476;50.002;11.854;2022-10-01T15:08:10;8.80;99.90
46730;DHT22;32476;50.002;11.854;2022-10-01T15:10:45;8.80;99.90
46730;DHT22;32476;50.002;11.854;2022-10-01T15:13:22;8.80;99.90
46730;DHT22;32476;50.002;11.854;2022-10-01T15:15:51;8.80;99.90
46730;DHT22;32476;50.002;11.854;2022-10-01T15:18:21;8.80;99.90
46730;DHT22;32476;50.002;11.854;2022-10-01T15:21:02;8.80;99.90
46730;DHT22;32476;50.002;11.854;2022-10-01T15:23:34;8.90;99.90
46730;DHT22;32476;50.002;11.854;2022-10-01T15:26:06;8.90;99.90
46730;DHT22;32476;50.002;11.854;2022-10-01T15:28:36;8.90;99.90
46730;DHT22;32476;50.002;11.854;2022-10-01T15:31:04;8.90;99.90
46730;DHT22;32476;50.002;11.854;2022-10-01T15:33:35;8.90;99.90
46730;DHT22;32476;50.002;11.854;2022-10-01T15:36:15;9.00;99.90
46730;DHT22;32476;50.002;11.854;2022-10-01T15:38:44;8.90;99.90
46730;DHT22;32476;50.002;11.854;2022-10-01T15:41:21;8.90;99.90
46730;DHT22;32476;50.002;11.854;2022-10-01T15:43:49;9.00;99.90
46730;DHT22;32476;50.002;11.854;2022-10-01T15:49:15;9.00;99.90
46730;DHT22;32476;50.002;11.854;2022-10-01T15:51:56;9.00;99.90
46730;DHT22;32476;50.002;11.854;2022-10-01T15:54:42;9.00;99.90
46730;DHT22;32476;50.002;11.854;2022-10-01T15:57:17;9.00;99.90
46730;DHT22;32476;50.002;11.854;2022-10-01T15:59:47;9.00;99.90
46730;DHT22;32476;50.002;11.854;2022-10-01T16:02:28;9.00;99.90
46730;DHT22;32476;50.002;11.854;2022-10-01T16:05:05;9.00;99.90
46730;DHT22;32476;50.002;11.854;2022-10-01T16:07:32;9.00;99.90
46730;DHT22;32476;50.002;11.854;2022-10-01T16:10:35;9.00;99.90
46730;DHT22;32476;50.002;11.854;2022-10-01T16:16:25;9.10;99.90
46730;DHT22;32476;50.002;11.854;2022-10-01T16:18:59;9.10;99.90
46730;DHT22;32476;50.002;11.854;2022-10-01T16:27:51;9.20;99.90
46730;DHT22;32476;50.002;11.854;2022-10-01T16:30:25;9.20;99.90
46730;DHT22;32476;50.002;11.854;2022-10-01T16:32:53;9.20;99.90
46730;DHT22;32476;50.002;11.854;2022-10-01T16:37:51;9.20;99.90
46730;DHT22;32476;50.002;11.854;2022-10-01T16:40:24;9.20;99.90
46730;DHT22;32476;50.002;11.854;2022-10-01T16:42:53;9.20;99.90
46730;DHT22;32476;50.002;11.854;2022-10-01T16:45:21;9.20;99.90
46730;DHT22;32476;50.002;11.854;2022-10-01T16:47:55;9.20;99.90
46730;DHT22;32476;50.002;11.854;2022-10-01T16:50:23;9.20;99.90
46730;DHT22;32476;50.002;11.854;2022-10-01T16:52:56;9.20;99.90
46730;DHT22;32476;50.002;11.854;2022-10-01T16:55:30;9.20;99.90
46730;DHT22;32476;50.002;11.854;2022-10-01T16:58:00;9.20;99.90
46730;DHT22;32476;50.002;11.854;2022-10-01T17:00:29;9.20;99.90
46730;DHT22;32476;50.002;11.854;2022-10-01T17:02:56;9.20;99.90
46730;DHT22;32476;50.002;11.854;2022-10-01T17:05:34;9.30;99.90
46730;DHT22;32476;50.002;11.854;2022-10-01T17:08:03;9.20;99.90
46730;DHT22;32476;50.002;11.854;2022-10-01T17:10:49;9.30;99.90
46730;DHT22;32476;50.002;11.854;2022-10-01T17:13:19;9.30;99.90
46730;DHT22;32476;50.002;11.854;2022-10-01T17:15:45;9.30;99.90
46730;DHT22;32476;50.002;11.854;2022-10-01T17:18:13;9.30;99.90
46730;DHT22;32476;50.002;11.854;2022-10-01T17:20:40;9.30;99.90
46730;DHT22;32476;50.002;11.854;2022-10-01T17:23:07;9.30;99.90
46730;DHT22;32476;50.002;11.854;2022-10-01T17:25:35;9.40;99.90
46730;DHT22;32476;50.002;11.854;2022-10-01T17:28:13;9.30;99.90
46730;DHT22;32476;50.002;11.854;2022-10-01T17:30:42;9.40;99.90
46730;DHT22;32476;50.002;11.854;2022-10-01T17:33:13;9.30;99.90
46730;DHT22;32476;50.002;11.854;2022-10-01T17:35:42;9.30;99.90
46730;DHT22;32476;50.002;11.854;2022-10-01T17:38:12;9.40;99.90
46730;DHT22;32476;50.002;11.854;2022-10-01T17:40:40;9.40;99.90
46730;DHT22;32476;50.002;11.854;2022-10-01T17:43:10;9.40;99.90
46730;DHT22;32476;50.002;11.854;2022-10-01T17:45:36;9.40;99.90
46730;DHT22;32476;50.002;11.854;2022-10-01T17:48:04;9.40;99.90
46730;DHT22;32476;50.002;11.854;2022-10-01T17:50:30;9.30;99.90
46730;DHT22;32476;50.002;11.854;2022-10-01T17:52:56;9.10;99.90
46730;DHT22;32476;50.002;11.854;2022-10-01T17:55:26;9.00;99.90
46730;DHT22;32476;50.002;11.854;2022-10-01T17:57:52;8.90;99.90
46730;DHT22;32476;50.002;11.854;2022-10-01T18:00:19;8.70;99.90
46730;DHT22;32476;50.002;11.854;2022-10-01T18:02:47;8.60;99.90
46730;DHT22;32476;50.002;11.854;2022-10-01T18:05:13;8.60;99.90
46730;DHT22;32476;50.002;11.854;2022-10-01T18:07:40;8.50;99.90
46730;DHT22;32476;50.002;11.854;2022-10-01T18:10:10;8.50;99.90
46730;DHT22;32476;50.002;11.854;2022-10-01T18:12:37;8.50;99.90
46730;DHT22;32476;50.002;11.854;2022-10-01T18:15:03;8.50;99.90
46730;DHT22;32476;50.002;11.854;2022-10-01T18:17:32;8.40;99.90